Time;durP1;ratioP1;P1;durP2;ratioP2;P2;SDS_P1;SDS_P2;PMS_P1;PMS_P2;Temp;Humidity;BMP_temperature;BMP_pressure;BME280_temperature;BME280_humidity;BME280_pressure;Samples;Min_cycle;Max_cycle;Signal;HPM_P1;HPM_P2
2023/03/18 00:01:52;;;;;;;;;;;13.20;42.10;;;11.90;44.86;100753.00;12272467;19;19919;-83
2023/03/18 00:06:06;;;;;;;;;;;13.20;42.20;;;11.84;44.88;100753.34;12272259;19;19931;-83
2023/03/18 00:10:09;;;;;;;;;;;13.10;42.10;;;11.88;44.81;100771.44;12273194;19;19947;-84
2023/03/18 00:14:10;;;;;;;;;;;13.10;41.70;;;11.84;44.97;100764.66;12269584;19;19930;-83
2023/03/18 00:18:16;;;;;;;;;;;13.00;40.50;;;11.38;45.05;100698.53;12266654;19;23128;-83
2023/03/18 00:22:18;;;;;;;;;;;13.00;41.50;;;11.78;44.90;100767.63;12271519;19;19938;-83
2023/03/18 00:26:19;;;;;;;;;;;13.00;41.80;;;11.78;44.89;100761.56;12269912;19;19978;-83
2023/03/18 00:30:22;;;;;;;;;;;13.00;42.00;;;11.78;45.00;100765.03;12270863;19;19929;-83
2023/03/18 00:34:25;;;;;;;;;;;13.00;41.40;;;11.72;44.91;100749.69;12264075;19;19911;-83
2023/03/18 00:38:28;;;;;;;;;;;13.00;41.70;;;11.77;44.94;100758.09;12262348;19;19919;-83
2023/03/18 00:42:36;;;;;;;;;;;13.00;41.30;;;11.75;44.94;100746.91;12266054;19;19915;-83
2023/03/18 00:46:37;;;;;;;;;;;13.00;41.80;;;11.58;45.03;100706.03;12265047;19;20222;-83
2023/03/18 00:50:40;;;;;;;;;;;13.00;40.90;;;11.48;44.94;100697.06;12265032;19;20419;-83
2023/03/18 00:54:42;;;;;;;;;;;13.00;41.60;;;11.67;44.99;100742.13;12268717;19;19927;-83
2023/03/18 00:58:44;;;;;;;;;;;13.00;41.70;;;11.65;45.08;100724.81;12260056;19;19962;-82
2023/03/18 01:02:48;;;;;;;;;;;13.00;41.70;;;11.80;44.95;100754.44;12264093;19;19930;-82
2023/03/18 01:06:50;;;;;;;;;;;13.00;41.60;;;11.71;45.13;100740.97;12262218;19;19918;-83
2023/03/18 01:10:52;;;;;;;;;;;13.10;41.20;;;11.54;45.13;100711.56;12265440;19;20252;-83
2023/03/18 01:14:53;;;;;;;;;;;13.00;41.70;;;11.78;44.90;100751.09;12267310;19;19938;-83
2023/03/18 01:18:56;;;;;;;;;;;13.00;41.40;;;11.73;44.99;100740.91;12275200;19;19918;-83
2023/03/18 01:22:57;;;;;;;;;;;13.10;41.30;;;11.64;45.06;100731.00;12274926;19;19911;-83
2023/03/18 01:27:00;;;;;;;;;;;13.00;41.30;;;11.66;44.85;100729.13;12269933;19;19923;-83
2023/03/18 01:31:02;;;;;;;;;;;13.00;41.50;;;11.57;44.93;100719.22;12271765;19;19915;-83
2023/03/18 01:35:04;;;;;;;;;;;13.00;41.80;;;11.65;45.03;100735.28;12270638;19;19922;-83
2023/03/18 01:39:09;;;;;;;;;;;13.00;41.80;;;11.62;44.85;100725.84;12269093;19;19918;-82
2023/03/18 01:43:16;;;;;;;;;;;13.00;42.00;;;11.62;44.94;100720.63;12271303;19;19929;-83
2023/03/18 01:47:20;;;;;;;;;;;13.00;41.50;;;11.69;44.81;100734.16;12267702;19;19961;-83
2023/03/18 01:51:28;;;;;;;;;;;12.90;41.60;;;11.55;44.96;100718.44;12269416;19;19937;-83
2023/03/18 01:55:30;;;;;;;;;;;13.10;41.60;;;11.51;44.86;100715.19;12269596;19;19938;-83
2023/03/18 01:59:37;;;;;;;;;;;12.90;41.20;;;11.50;44.83;100710.88;12266367;19;20379;-83
2023/03/18 02:03:41;;;;;;;;;;;12.90;41.60;;;11.42;44.84;100684.34;12269230;19;19921;-83
2023/03/18 02:07:44;;;;;;;;;;;12.90;41.20;;;11.48;44.77;100704.91;12261210;19;19937;-83
2023/03/18 02:11:50;;;;;;;;;;;12.90;41.70;;;11.51;45.12;100717.81;12266590;19;19911;-83
2023/03/18 02:16:04;;;;;;;;;;;12.90;41.90;;;11.51;44.84;100729.09;12266184;19;19941;-83
2023/03/18 02:20:18;;;;;;;;;;;12.90;41.70;;;11.56;44.93;100728.84;12266316;19;19955;-82
2023/03/18 02:24:28;;;;;;;;;;;12.80;41.70;;;11.56;44.87;100738.44;12265583;19;20344;-83
2023/03/18 02:28:31;;;;;;;;;;;12.80;41.80;;;11.43;45.05;100707.78;12263388;19;19919;-83
2023/03/18 02:32:36;;;;;;;;;;;12.80;41.60;;;11.42;45.05;100707.88;12263148;19;19930;-83
2023/03/18 02:36:37;;;;;;;;;;;12.80;41.10;;;11.46;44.95;100718.06;12265686;19;19922;-83
2023/03/18 02:40:43;;;;;;;;;;;12.80;41.70;;;11.47;44.99;100724.13;12265316;19;19915;-83
2023/03/18 02:44:52;;;;;;;;;;;12.80;41.70;;;11.37;44.85;100709.91;12265108;19;19971;-82
2023/03/18 02:49:14;;;;;;;;;;;12.80;41.80;;;11.41;44.97;100708.81;12262321;19;19915;-82
2023/03/18 02:53:16;;;;;;;;;;;12.80;41.70;;;11.49;44.83;100728.34;12260290;19;19903;-82
2023/03/18 02:57:19;;;;;;;;;;;13.00;41.90;;;11.42;44.96;100715.72;12260209;19;19923;-83
2023/03/18 03:01:22;;;;;;;;;;;12.80;41.70;;;11.48;44.78;100733.69;12262849;19;19940;-83
2023/03/18 03:05:24;;;;;;;;;;;12.80;41.80;;;11.38;44.81;100709.84;12260519;19;19987;-83
2023/03/18 03:09:27;;;;;;;;;;;12.80;41.80;;;11.42;44.92;100700.03;12262169;19;19934;-82
2023/03/18 03:13:29;;;;;;;;;;;12.80;41.80;;;11.41;44.96;100698.34;12258950;19;19986;-82
2023/03/18 03:17:32;;;;;;;;;;;12.70;41.70;;;11.28;44.72;100686.00;12257528;19;20259;-82
2023/03/18 03:21:34;;;;;;;;;;;12.70;41.60;;;11.29;44.71;100694.69;12260189;19;19915;-82
2023/03/18 03:25:36;;;;;;;;;;;12.90;41.80;;;11.40;44.92;100726.28;12259078;19;19931;-82
2023/03/18 03:29:38;;;;;;;;;;;12.70;41.70;;;11.12;44.94;100685.22;12259681;19;19914;-83
2023/03/18 03:33:42;;;;;;;;;;;12.70;41.20;;;11.23;45.01;100705.50;12257108;19;19915;-83
2023/03/18 03:37:44;;;;;;;;;;;12.60;41.60;;;11.29;45.04;100719.06;12254921;19;19919;-82
2023/03/18 03:41:46;;;;;;;;;;;12.60;41.70;;;11.21;44.79;100707.38;12259348;19;19919;-82
2023/03/18 03:45:50;;;;;;;;;;;12.60;41.10;;;11.25;45.10;100714.09;12257692;19;19919;-83
2023/03/18 03:49:52;;;;;;;;;;;12.60;41.40;;;11.27;44.98;100727.94;12258221;19;19923;-83
2023/03/18 03:53:54;;;;;;;;;;;12.60;41.60;;;11.29;44.91;100731.31;12255407;19;19998;-82
2023/03/18 03:57:56;;;;;;;;;;;12.60;41.60;;;11.30;44.98;100732.97;12253865;19;19927;-83
2023/03/18 04:01:59;;;;;;;;;;;12.60;41.60;;;11.24;44.82;100726.31;12256424;19;19918;-83
2023/03/18 04:06:01;;;;;;;;;;;12.60;42.20;;;11.23;44.69;100723.78;12255416;19;19971;-82
2023/03/18 04:10:08;;;;;;;;;;;12.50;41.50;;;10.96;44.98;100693.09;12258437;19;19930;-83
2023/03/18 04:14:11;;;;;;;;;;;12.50;41.30;;;11.06;44.85;100704.69;12253419;19;19939;-82
2023/03/18 04:18:13;;;;;;;;;;;12.50;41.20;;;11.18;44.72;100724.06;12252475;19;19914;-82
2023/03/18 04:22:17;;;;;;;;;;;12.50;41.80;;;11.21;44.95;100739.59;12255857;19;19990;-83
2023/03/18 04:26:19;;;;;;;;;;;12.50;41.90;;;11.16;44.82;100735.56;12251507;19;19986;-83
2023/03/18 04:30:22;;;;;;;;;;;12.50;41.70;;;11.05;44.82;100720.47;12257855;19;19907;-83
2023/03/18 04:34:44;;;;;;;;;;;12.50;41.80;;;11.12;44.96;100734.03;12251809;19;19923;-82
2023/03/18 04:38:46;;;;;;;;;;;12.50;41.80;;;11.02;44.86;100728.50;12249715;19;20321;-82
2023/03/18 04:42:48;;;;;;;;;;;12.40;41.90;;;11.12;44.80;100747.94;12255616;19;19919;-82
2023/03/18 04:46:53;;;;;;;;;;;12.40;41.80;;;11.04;44.80;100740.56;12252148;19;19926;-83
2023/03/18 04:50:55;;;;;;;;;;;12.40;41.90;;;11.12;44.79;100757.53;12263422;19;19939;-82
2023/03/18 04:55:02;;;;;;;;;;;12.40;41.80;;;11.06;44.84;100756.13;12264718;19;19914;-82
2023/03/18 04:59:05;;;;;;;;;;;12.40;42.00;;;10.94;44.72;100739.38;12265157;19;19923;-83
2023/03/18 05:03:08;;;;;;;;;;;12.40;41.90;;;10.94;45.02;100743.78;12266092;19;19928;-83
2023/03/18 05:07:14;;;;;;;;;;;12.40;42.10;;;11.05;44.84;100760.50;12260876;19;19931;-82
2023/03/18 05:11:22;;;;;;;;;;;12.30;41.70;;;10.90;44.91;100739.63;12260570;19;19923;-82
2023/03/18 05:15:24;;;;;;;;;;;12.30;42.00;;;11.01;44.85;100755.53;12262390;19;19946;-83
2023/03/18 05:19:29;;;;;;;;;;;12.30;42.10;;;10.90;44.80;100744.84;12265879;19;19915;-83
2023/03/18 05:23:40;;;;;;;;;;;12.30;42.00;;;10.94;44.88;100762.91;12265024;19;19938;-83
2023/03/18 05:27:42;;;;;;;;;;;12.20;42.00;;;10.88;44.98;100755.38;12262033;19;20259;-82
2023/03/18 05:31:51;;;;;;;;;;;12.20;41.90;;;10.92;44.77;100759.53;12265370;19;20303;-82
2023/03/18 05:35:53;;;;;;;;;;;12.20;42.10;;;10.84;44.81;100749.50;12273037;19;19926;-82
2023/03/18 05:40:00;;;;;;;;;;;12.20;42.10;;;10.62;44.77;100718.50;12265575;19;19914;-82
2023/03/18 05:44:04;;;;;;;;;;;12.20;42.20;;;10.66;44.74;100721.78;12264300;19;19922;-82
2023/03/18 05:48:10;;;;;;;;;;;12.10;42.20;;;10.73;44.92;100737.97;12259255;19;19929;-82
2023/03/18 05:52:21;;;;;;;;;;;12.10;42.20;;;10.53;44.89;100720.78;12261473;19;19923;-82
2023/03/18 05:56:24;;;;;;;;;;;12.10;42.20;;;10.84;44.86;100782.63;12261744;19;19939;-81
2023/03/18 06:00:30;;;;;;;;;;;12.10;42.30;;;10.82;44.76;100784.47;12260060;19;19919;-82
2023/03/18 06:04:34;;;;;;;;;;;12.10;42.20;;;10.68;44.82;100771.34;12260326;19;19986;-82
2023/03/18 06:08:36;;;;;;;;;;;12.10;42.20;;;10.47;44.89;100732.41;12256346;19;19914;-82
2023/03/18 06:12:38;;;;;;;;;;;12.10;42.20;;;10.57;44.85;100753.66;12259778;19;19974;-82
2023/03/18 06:16:40;;;;;;;;;;;12.00;42.00;;;10.63;44.99;100769.81;12259132;19;19910;-82
2023/03/18 06:20:42;;;;;;;;;;;12.00;42.00;;;10.50;44.86;100750.50;12260418;19;19954;-82
2023/03/18 06:24:44;;;;;;;;;;;12.00;42.30;;;10.60;45.02;100769.97;12260631;19;19923;-82
2023/03/18 06:28:46;;;;;;;;;;;12.00;42.20;;;10.52;45.03;100755.66;12256346;19;19911;-82
2023/03/18 06:32:49;;;;;;;;;;;12.00;42.10;;;10.65;45.00;100777.56;12258976;19;19915;-81
2023/03/18 06:36:52;;;;;;;;;;;12.00;42.60;;;10.62;44.91;100773.34;12257781;19;20260;-84
2023/03/18 06:40:55;;;;;;;;;;;11.90;41.90;;;10.62;44.83;100782.97;12263809;19;19922;-84
2023/03/18 06:44:57;;;;;;;;;;;12.00;42.10;;;10.56;44.92;100773.69;12297160;19;19953;-84
2023/03/18 06:49:07;;;;;;;;;;;12.00;42.10;;;10.58;44.83;100773.59;12306677;19;20212;-85
2023/03/18 06:53:15;;;;;;;;;;;12.00;42.20;;;10.71;45.05;100797.28;12306570;19;19935;-84
2023/03/18 06:57:19;;;;;;;;;;;12.00;42.30;;;10.71;45.06;100792.91;12297398;19;19922;-84
2023/03/18 07:01:22;;;;;;;;;;;12.00;42.30;;;10.71;45.04;100803.34;12298685;19;19914;-85
2023/03/18 07:05:26;;;;;;;;;;;12.00;42.30;;;10.66;45.10;100794.06;12289417;19;19934;-85
2023/03/18 07:09:30;;;;;;;;;;;12.10;42.20;;;10.56;45.19;100789.38;12277386;19;19915;-86
2023/03/18 07:13:33;;;;;;;;;;;12.10;42.30;;;10.79;45.13;100816.81;12270955;19;19950;-87
2023/03/18 07:17:37;;;;;;;;;;;12.10;42.30;;;10.84;45.08;100814.81;12268010;19;19940;-86
2023/03/18 07:21:41;;;;;;;;;;;12.10;42.40;;;10.79;45.18;100806.38;12277241;19;19915;-85
2023/03/18 07:25:43;;;;;;;;;;;12.20;42.40;;;10.84;45.00;100827.03;12277477;19;19930;-84
2023/03/18 07:29:45;;;;;;;;;;;12.20;42.40;;;10.91;45.15;100837.97;12275260;19;19918;-85
2023/03/18 07:33:47;;;;;;;;;;;12.20;42.50;;;10.94;45.17;100833.44;12277547;19;19947;-86
2023/03/18 07:37:50;;;;;;;;;;;12.30;42.60;;;10.99;45.12;100844.50;12265913;19;19926;-85
2023/03/18 07:41:52;;;;;;;;;;;12.30;42.10;;;11.00;45.01;100843.56;12278058;19;19933;-85
2023/03/18 07:45:57;;;;;;;;;;;12.50;42.30;;;11.07;45.13;100849.25;12273323;19;20341;-85
2023/03/18 07:49:59;;;;;;;;;;;12.40;42.40;;;10.98;45.23;100815.81;12277015;19;19919;-85
2023/03/18 07:54:02;;;;;;;;;;;12.40;42.30;;;11.13;45.10;100845.50;12275414;19;19911;-85
2023/03/18 07:58:05;;;;;;;;;;;12.50;42.30;;;11.16;44.92;100848.78;12273335;19;20293;-85
2023/03/18 08:02:11;;;;;;;;;;;12.50;42.50;;;11.24;45.02;100856.19;12274803;19;20291;-85
2023/03/18 08:06:14;;;;;;;;;;;12.60;42.00;;;11.14;45.26;100831.50;12274208;19;19932;-85
2023/03/18 08:10:16;;;;;;;;;;;12.60;42.50;;;11.30;45.04;100850.63;12273270;19;19939;-86
2023/03/18 08:14:17;;;;;;;;;;;12.70;41.50;;;11.34;45.23;100844.28;12272365;19;20454;-84
2023/03/18 08:18:19;;;;;;;;;;;12.80;42.20;;;11.43;45.12;100848.16;12270320;19;19914;-84
2023/03/18 08:22:22;;;;;;;;;;;12.80;42.50;;;11.60;45.07;100862.88;12273401;19;20607;-85
2023/03/18 08:26:24;;;;;;;;;;;13.00;42.70;;;11.61;45.17;100852.34;12270626;19;19930;-84
2023/03/18 08:30:27;;;;;;;;;;;13.10;42.30;;;11.88;45.14;100885.69;12270229;19;20348;-85
2023/03/18 08:34:29;;;;;;;;;;;13.20;42.70;;;11.79;45.34;100844.34;12269135;19;19923;-85
2023/03/18 08:38:30;;;;;;;;;;;13.30;42.60;;;11.86;45.19;100840.47;12266537;19;20361;-85
2023/03/18 08:42:32;;;;;;;;;;;13.40;42.80;;;12.17;45.26;100865.66;12269143;19;19926;-84
2023/03/18 08:46:33;;;;;;;;;;;13.60;42.60;;;12.39;45.36;100888.78;12256031;19;19922;-85
2023/03/18 08:50:35;;;;;;;;;;;13.80;42.50;;;12.60;45.34;100894.50;12257299;19;19926;-85
2023/03/18 08:54:39;;;;;;;;;;;13.90;42.70;;;12.77;45.53;100906.56;12261493;19;20246;-84
2023/03/18 08:58:43;;;;;;;;;;;14.10;43.00;;;12.91;45.39;100900.47;12259381;19;20299;-83
2023/03/18 09:02:45;;;;;;;;;;;14.30;42.50;;;12.76;45.27;100848.09;12267874;19;19919;-83
2023/03/18 09:06:47;;;;;;;;;;;14.50;42.90;;;13.10;45.42;100895.78;12265331;19;19918;-83
2023/03/18 09:10:52;;;;;;;;;;;14.60;42.30;;;13.23;45.39;100894.06;12262738;19;19930;-83
2023/03/18 09:14:54;;;;;;;;;;;14.70;42.60;;;13.23;45.29;100880.97;12257435;19;19925;-83
2023/03/18 09:18:56;;;;;;;;;;;14.70;42.40;;;13.37;45.30;100869.59;12262849;19;19915;-84
2023/03/18 09:22:58;;;;;;;;;;;14.80;42.90;;;13.48;45.23;100887.28;12264138;19;20322;-84
2023/03/18 09:26:59;;;;;;;;;;;14.90;42.70;;;13.46;45.26;100873.41;12261459;19;19931;-84
2023/03/18 09:31:02;;;;;;;;;;;15.00;42.40;;;13.66;45.27;100886.09;12264784;19;20245;-84
2023/03/18 09:35:05;;;;;;;;;;;15.10;42.40;;;13.50;45.32;100852.13;12263051;19;19924;-83
2023/03/18 09:39:07;;;;;;;;;;;15.20;42.80;;;13.70;45.38;100878.84;12271756;19;19914;-83
2023/03/18 09:43:24;;;;;;;;;;;15.30;43.00;;;13.94;45.39;100900.00;12275235;19;19911;-84
2023/03/18 09:47:50;;;;;;;;;;;15.40;43.00;;;14.09;45.46;100908.63;12269153;19;20040;-83
2023/03/18 09:51:57;;;;;;;;;;;15.50;43.10;;;14.24;45.46;100914.66;12265427;19;19911;-84
2023/03/18 09:56:01;;;;;;;;;;;15.70;43.20;;;14.19;45.42;100888.69;12266333;19;19915;-84
2023/03/18 10:00:16;;;;;;;;;;;15.80;43.30;;;14.55;45.47;100919.50;12273723;19;20342;-86
2023/03/18 10:04:24;;;;;;;;;;;16.00;43.30;;;14.66;45.49;100905.63;12268775;19;19922;-86
2023/03/18 10:08:45;;;;;;;;;;;16.10;43.00;;;14.81;45.33;100922.13;12270806;19;19907;-83
2023/03/18 10:12:58;;;;;;;;;;;16.30;43.10;;;14.87;45.41;100903.28;12273395;19;19931;-83
2023/03/18 10:17:21;;;;;;;;;;;16.40;43.10;;;14.95;45.49;100906.22;12267173;19;19915;-84
2023/03/18 10:21:33;;;;;;;;;;;16.50;42.70;;;15.09;45.37;100904.41;12272189;19;19918;-83
2023/03/18 10:25:53;;;;;;;;;;;16.60;43.00;;;15.21;45.53;100896.47;12269040;19;20187;-84
2023/03/18 10:30:05;;;;;;;;;;;16.80;43.10;;;15.47;45.43;100902.50;12271497;19;19914;-84
2023/03/18 10:34:21;;;;;;;;;;;16.90;42.80;;;15.57;45.40;100894.75;12270227;19;19928;-84
2023/03/18 10:38:25;;;;;;;;;;;17.00;42.10;;;15.77;45.35;100901.22;12266772;19;19915;-84
2023/03/18 10:42:30;;;;;;;;;;;17.20;42.50;;;15.97;45.57;100910.25;12269470;19;19919;-84
2023/03/18 10:46:34;;;;;;;;;;;17.40;42.60;;;16.12;45.51;100910.88;12270261;19;19926;-83
2023/03/18 10:50:42;;;;;;;;;;;17.60;42.90;;;16.23;45.44;100903.03;12268328;19;19930;-83
2023/03/18 10:54:52;;;;;;;;;;;17.70;43.00;;;16.32;45.35;100883.03;12263965;19;19938;-84
2023/03/18 10:58:55;;;;;;;;;;;17.90;43.20;;;16.52;45.32;100887.59;12270083;19;20411;-83
2023/03/18 11:02:56;;;;;;;;;;;18.00;42.90;;;16.43;45.19;100861.97;12266518;19;20271;-83
2023/03/18 11:07:01;;;;;;;;;;;18.20;43.00;;;16.85;45.37;100919.38;12258297;19;19915;-84
2023/03/18 11:11:26;;;;;;;;;;;18.30;43.00;;;16.98;45.42;100914.81;12266361;19;19917;-84
2023/03/18 11:15:34;;;;;;;;;;;18.40;41.50;;;16.94;45.07;100890.50;12265727;19;19926;-83
2023/03/18 11:20:01;;;;;;;;;;;18.60;41.60;;;17.14;45.13;100911.81;12271982;19;19915;-85
2023/03/18 11:24:23;;;;;;;;;;;18.60;42.40;;;17.29;45.24;100907.13;12276694;19;19918;-82
2023/03/18 11:28:28;;;;;;;;;;;18.70;41.10;;;17.27;45.23;100887.94;12262934;19;19922;-84
2023/03/18 11:32:35;;;;;;;;;;;18.90;41.80;;;17.43;44.90;100896.28;12260808;19;20335;-84
2023/03/18 11:36:37;;;;;;;;;;;18.90;42.00;;;17.51;45.01;100882.44;12265432;19;19919;-86
2023/03/18 11:40:39;;;;;;;;;;;19.00;42.50;;;17.70;44.85;100891.38;12263761;19;19919;-84
2023/03/18 11:44:41;;;;;;;;;;;19.10;42.30;;;17.60;44.90;100855.28;12265425;19;19911;-85
2023/03/18 11:48:43;;;;;;;;;;;19.20;40.50;;;17.86;44.96;100885.69;12261101;19;19934;-84
2023/03/18 11:52:51;;;;;;;;;;;19.30;42.10;;;18.03;45.00;100886.91;12259468;19;19950;-84
2023/03/18 11:56:58;;;;;;;;;;;19.40;41.90;;;18.14;44.92;100886.84;12260739;19;19915;-84
2023/03/18 12:01:29;;;;;;;;;;;19.50;42.70;;;18.29;44.78;100891.81;12260649;19;19923;-84
2023/03/18 12:05:52;;;;;;;;;;;19.70;42.80;;;18.45;44.71;100891.34;12260574;19;19911;-84
2023/03/18 12:10:09;;;;;;;;;;;19.80;42.80;;;18.44;44.84;100877.25;12261659;19;19950;-84
2023/03/18 12:14:42;;;;;;;;;;;20.00;42.50;;;18.68;44.60;100894.63;12257146;19;19921;-85
2023/03/18 12:18:51;;;;;;;;;;;20.10;42.90;;;18.81;44.65;100887.34;12258697;19;20356;-84
2023/03/18 12:23:12;;;;;;;;;;;20.20;43.10;;;18.93;44.48;100901.28;12261498;19;19911;-86
2023/03/18 12:27:19;;;;;;;;;;;20.30;41.80;;;19.02;44.46;100892.56;12255531;19;19930;-86
2023/03/18 12:31:42;;;;;;;;;;;20.40;42.70;;;19.09;44.91;100892.84;12256347;19;20270;-86
2023/03/18 12:35:53;;;;;;;;;;;20.50;42.80;;;19.13;44.52;100881.03;12259000;19;19922;-86
2023/03/18 12:40:16;;;;;;;;;;;20.60;43.20;;;19.27;44.71;100888.56;12261167;19;20590;-86
2023/03/18 12:44:26;;;;;;;;;;;20.70;43.10;;;19.34;44.66;100889.69;12258694;19;19923;-86
2023/03/18 12:48:50;;;;;;;;;;;20.70;42.30;;;19.40;44.65;100883.84;12256333;19;19911;-84
2023/03/18 12:53:00;;;;;;;;;;;20.80;43.00;;;19.46;44.61;100883.28;12257153;19;19911;-85
2023/03/18 12:57:10;;;;;;;;;;;20.80;42.70;;;19.43;44.52;100875.63;12258265;19;19915;-84
2023/03/18 13:01:34;;;;;;;;;;;20.90;43.10;;;19.55;44.46;100878.13;12256371;19;19911;-84
2023/03/18 13:05:51;;;;;;;;;;;20.90;43.20;;;19.71;44.49;100889.03;12254643;19;19990;-87
2023/03/18 13:10:20;;;;;;;;;;;21.00;43.30;;;19.79;44.72;100867.97;12256514;19;19919;-85
2023/03/18 13:14:43;;;;;;;;;;;21.10;43.20;;;19.87;44.25;100875.22;12263944;19;19922;-84
2023/03/18 13:18:49;;;;;;;;;;;21.20;43.20;;;19.95;44.49;100871.84;12263835;19;19926;-84
2023/03/18 13:23:09;;;;;;;;;;;21.30;43.30;;;20.03;44.49;100871.97;12267610;19;19923;-85
2023/03/18 13:27:34;;;;;;;;;;;21.30;43.20;;;20.10;44.43;100875.75;12265681;19;19919;-85
2023/03/18 13:31:55;;;;;;;;;;;21.40;43.10;;;20.14;44.60;100869.16;12267421;19;19938;-85
2023/03/18 13:36:33;;;;;;;;;;;21.50;43.20;;;20.18;44.20;100862.59;12266158;19;19919;-84
2023/03/18 13:40:38;;;;;;;;;;;21.50;43.10;;;20.22;44.18;100857.84;12266744;19;19922;-85
2023/03/18 13:45:21;;;;;;;;;;;21.60;42.80;;;20.27;44.27;100856.44;12266705;19;19938;-85
2023/03/18 13:49:27;;;;;;;;;;;21.60;42.90;;;20.27;44.39;100855.59;12270662;19;19918;-85
2023/03/18 13:53:37;;;;;;;;;;;21.60;43.10;;;20.22;44.01;100845.41;12264253;19;19911;-85
2023/03/18 13:57:46;;;;;;;;;;;21.60;43.20;;;20.32;44.34;100861.31;12260220;19;19927;-84
2023/03/18 14:01:49;;;;;;;;;;;21.60;43.30;;;20.34;44.12;100860.19;12265162;19;19911;-85
2023/03/18 14:06:11;;;;;;;;;;;21.60;43.20;;;20.34;44.44;100852.22;12259456;19;20256;-84
2023/03/18 14:10:17;;;;;;;;;;;21.60;43.00;;;20.38;44.25;100849.28;12264510;19;19907;-84
2023/03/18 14:14:47;;;;;;;;;;;21.70;43.20;;;20.43;44.33;100850.50;12262138;19;19922;-84
2023/03/18 14:19:00;;;;;;;;;;;21.70;42.90;;;20.39;44.00;100845.63;12259761;19;19925;-84
2023/03/18 14:23:32;;;;;;;;;;;21.70;43.00;;;20.47;43.92;100861.69;12261033;19;20257;-84
2023/03/18 14:27:46;;;;;;;;;;;21.70;43.20;;;20.38;43.90;100830.72;12258999;19;19915;-84
2023/03/18 14:31:47;;;;;;;;;;;21.70;43.20;;;20.50;43.98;100840.16;12261267;19;19927;-84
2023/03/18 14:35:59;;;;;;;;;;;21.70;43.30;;;20.46;43.79;100822.84;12261322;19;19910;-85
2023/03/18 14:40:16;;;;;;;;;;;21.70;43.00;;;20.44;44.02;100820.38;12259567;19;19918;-84
2023/03/18 14:44:42;;;;;;;;;;;21.80;43.30;;;20.60;44.13;100838.31;12260344;19;19903;-85
2023/03/18 14:48:45;;;;;;;;;;;21.80;43.30;;;20.55;43.94;100822.03;12258758;19;19915;-84
2023/03/18 14:52:54;;;;;;;;;;;21.80;43.40;;;20.67;44.23;100833.28;12255055;19;19914;-85
2023/03/18 14:56:56;;;;;;;;;;;21.90;44.00;;;20.69;43.96;100834.78;12257453;19;19919;-84
2023/03/18 15:01:10;;;;;;;;;;;21.90;44.00;;;20.73;44.23;100835.31;12262742;19;19915;-84
2023/03/18 15:05:15;;;;;;;;;;;21.90;43.60;;;20.78;43.98;100841.84;12259281;19;19923;-84
2023/03/18 15:09:23;;;;;;;;;;;21.90;43.60;;;20.79;43.72;100829.41;12259477;19;19921;-85
2023/03/18 15:13:25;;;;;;;;;;;21.90;43.50;;;20.79;43.97;100826.75;12261009;19;19915;-84
2023/03/18 15:17:26;;;;;;;;;;;22.00;43.50;;;20.86;43.91;100827.00;12256225;19;19923;-86
2023/03/18 15:21:36;;;;;;;;;;;22.00;43.00;;;20.77;43.78;100818.97;12258965;19;19919;-84
2023/03/18 15:25:40;;;;;;;;;;;22.00;43.00;;;20.74;43.93;100818.44;12256674;19;19918;-85
2023/03/18 15:29:50;;;;;;;;;;;22.00;43.00;;;20.74;44.13;100824.56;12259278;19;20368;-85
2023/03/18 15:34:02;;;;;;;;;;;22.00;43.10;;;20.83;43.90;100833.47;12252183;19;19911;-85
2023/03/18 15:38:18;;;;;;;;;;;22.00;43.10;;;20.73;44.05;100814.09;12255692;19;19915;-85
2023/03/18 15:42:20;;;;;;;;;;;22.00;43.30;;;20.75;44.03;100820.91;12262251;19;19918;-84
2023/03/18 15:46:29;;;;;;;;;;;22.00;42.50;;;20.73;44.08;100830.00;12256736;19;19922;-84
2023/03/18 15:50:33;;;;;;;;;;;21.90;43.10;;;20.80;43.83;100841.72;12252458;19;19922;-84
2023/03/18 15:54:38;;;;;;;;;;;21.90;43.30;;;20.68;43.87;100827.78;12252507;19;19944;-85
2023/03/18 15:58:43;;;;;;;;;;;21.90;43.10;;;20.54;43.87;100818.50;12255774;19;19914;-84
2023/03/18 16:02:45;;;;;;;;;;;21.90;43.30;;;20.55;43.78;100827.34;12259810;19;19986;-84
2023/03/18 16:06:47;;;;;;;;;;;21.90;43.20;;;20.73;43.94;100869.81;12256169;19;19922;-84
2023/03/18 16:10:53;;;;;;;;;;;21.80;43.30;;;20.65;43.81;100859.94;12260618;19;19919;-85
2023/03/18 16:14:55;;;;;;;;;;;21.80;43.40;;;20.51;43.70;100839.19;12248250;19;19914;-85
2023/03/18 16:18:58;;;;;;;;;;;21.80;43.40;;;20.62;44.06;100870.03;12253796;19;19927;-86
2023/03/18 16:22:59;;;;;;;;;;;21.80;43.30;;;20.61;43.96;100876.31;12261187;19;19911;-85
2023/03/18 16:27:03;;;;;;;;;;;21.70;43.30;;;20.55;43.53;100881.22;12256551;19;19942;-85
2023/03/18 16:31:05;;;;;;;;;;;21.70;43.30;;;20.45;43.75;100866.28;12255756;19;20324;-84
2023/03/18 16:35:11;;;;;;;;;;;21.70;43.40;;;20.47;43.78;100867.00;12255333;19;19919;-85
2023/03/18 16:39:26;;;;;;;;;;;21.60;43.40;;;20.48;43.85;100871.31;12257528;19;19922;-85
2023/03/18 16:43:29;;;;;;;;;;;21.60;43.40;;;20.46;43.72;100875.91;12252274;19;19921;-86
2023/03/18 16:47:31;;;;;;;;;;;21.60;43.50;;;20.52;43.67;100893.91;12261108;19;19918;-85
2023/03/18 16:51:33;;;;;;;;;;;21.50;43.50;;;20.44;43.71;100893.78;12270879;19;19919;-84
2023/03/18 16:55:34;;;;;;;;;;;21.50;43.60;;;20.44;43.67;100899.09;12267545;19;19919;-84
2023/03/18 16:59:36;;;;;;;;;;;21.50;43.60;;;20.38;43.57;100904.97;12269837;19;19925;-84
2023/03/18 17:03:38;;;;;;;;;;;21.40;43.50;;;20.21;43.69;100886.19;12274583;19;20514;-84
2023/03/18 17:07:40;;;;;;;;;;;21.40;43.60;;;20.24;43.60;100901.81;12272242;19;19911;-83
2023/03/18 17:11:43;;;;;;;;;;;21.40;43.60;;;20.20;43.80;100905.75;12303200;19;19948;-83
2023/03/18 17:15:44;;;;;;;;;;;21.30;43.60;;;20.13;43.42;100909.09;12305520;19;19922;-86
2023/03/18 17:19:46;;;;;;;;;;;21.20;43.60;;;19.89;43.66;100887.34;12309339;19;19911;-85
2023/03/18 17:23:48;;;;;;;;;;;21.10;43.50;;;19.76;43.62;100889.44;12307233;19;19926;-85
2023/03/18 17:27:54;;;;;;;;;;;21.10;43.60;;;19.89;43.41;100935.06;12301285;19;19962;-86
2023/03/18 17:31:55;;;;;;;;;;;21.00;43.50;;;19.59;43.65;100900.72;12291931;19;19918;-86
2023/03/18 17:36:00;;;;;;;;;;;20.80;43.50;;;19.64;43.65;100928.47;12283893;19;19946;-85
2023/03/18 17:40:02;;;;;;;;;;;20.70;43.50;;;19.65;43.84;100950.50;12283328;19;19933;-87
2023/03/18 17:44:22;;;;;;;;;;;20.60;43.50;;;19.51;43.62;100956.22;12283923;19;19919;-86
2023/03/18 17:48:27;;;;;;;;;;;20.50;43.50;;;19.23;43.80;100945.44;12276227;19;19915;-85
2023/03/18 17:52:29;;;;;;;;;;;20.40;43.30;;;18.88;43.76;100908.81;12278814;19;19907;-84
2023/03/18 17:56:31;;;;;;;;;;;20.20;43.30;;;18.76;43.71;100919.47;12272789;19;20380;-84
2023/03/18 18:00:32;;;;;;;;;;;20.00;43.30;;;18.66;43.65;100936.25;12278611;19;19919;-84
2023/03/18 18:04:35;;;;;;;;;;;19.80;43.40;;;18.51;43.54;100951.63;12275278;19;19934;-85
2023/03/18 18:08:36;;;;;;;;;;;19.60;43.40;;;18.34;43.67;100937.22;12266115;19;19918;-85
2023/03/18 18:12:41;;;;;;;;;;;19.40;43.50;;;18.31;43.71;100959.44;12266509;19;19935;-84
2023/03/18 18:16:43;;;;;;;;;;;19.20;43.60;;;18.12;43.77;100946.94;12266428;19;19950;-84
2023/03/18 18:20:45;;;;;;;;;;;19.10;43.60;;;17.89;43.75;100934.78;12273517;19;19929;-84
2023/03/18 18:24:47;;;;;;;;;;;18.90;43.60;;;17.81;43.44;100942.50;12270219;19;19919;-85
2023/03/18 18:28:50;;;;;;;;;;;18.70;43.60;;;17.50;43.92;100931.78;12265330;19;19924;-85